sensor_id;sensor_type;location;lat;lon;timestamp;temperature;humidity
83146;DHT22;73037;51.110;4.706;2023-10-09T00:00:50;14.90;77.20
83146;DHT22;73037;51.110;4.706;2023-10-09T00:03:19;15.00;77.20
83146;DHT22;73037;51.110;4.706;2023-10-09T00:05:49;15.00;77.00
83146;DHT22;73037;51.110;4.706;2023-10-09T00:08:18;15.00;77.00
83146;DHT22;73037;51.110;4.706;2023-10-09T00:10:48;15.00;77.20
83146;DHT22;73037;51.110;4.706;2023-10-09T00:13:18;15.00;77.40
83146;DHT22;73037;51.110;4.706;2023-10-09T00:15:44;15.00;76.60
83146;DHT22;73037;51.110;4.706;2023-10-09T00:18:18;15.00;76.50
83146;DHT22;73037;51.110;4.706;2023-10-09T00:20:48;15.00;76.40
83146;DHT22;73037;51.110;4.706;2023-10-09T00:23:19;15.00;76.80
83146;DHT22;73037;51.110;4.706;2023-10-09T00:25:49;15.00;77.00
83146;DHT22;73037;51.110;4.706;2023-10-09T00:28:32;15.00;77.00
83146;DHT22;73037;51.110;4.706;2023-10-09T00:30:59;15.10;76.50
83146;DHT22;73037;51.110;4.706;2023-10-09T00:33:29;15.20;76.60
83146;DHT22;73037;51.110;4.706;2023-10-09T00:35:55;15.20;76.50
83146;DHT22;73037;51.110;4.706;2023-10-09T00:38:21;15.20;76.50
83146;DHT22;73037;51.110;4.706;2023-10-09T00:40:47;15.20;76.40
83146;DHT22;73037;51.110;4.706;2023-10-09T00:43:21;15.20;76.50
83146;DHT22;73037;51.110;4.706;2023-10-09T00:45:54;15.20;76.90
83146;DHT22;73037;51.110;4.706;2023-10-09T00:48:20;15.30;76.50
83146;DHT22;73037;51.110;4.706;2023-10-09T00:50:57;15.30;76.80
83146;DHT22;73037;51.110;4.706;2023-10-09T00:53:26;15.20;76.50
83146;DHT22;73037;51.110;4.706;2023-10-09T00:55:59;15.20;76.80
83146;DHT22;73037;51.110;4.706;2023-10-09T00:58:29;15.30;77.00
83146;DHT22;73037;51.110;4.706;2023-10-09T01:00:59;15.20;76.80
83146;DHT22;73037;51.110;4.706;2023-10-09T01:03:25;15.30;76.60
83146;DHT22;73037;51.110;4.706;2023-10-09T01:05:54;15.30;76.60
83146;DHT22;73037;51.110;4.706;2023-10-09T01:08:25;15.30;77.00
83146;DHT22;73037;51.110;4.706;2023-10-09T01:11:16;15.30;77.10
83146;DHT22;73037;51.110;4.706;2023-10-09T01:13:54;15.30;77.10
83146;DHT22;73037;51.110;4.706;2023-10-09T01:16:28;15.40;77.10
83146;DHT22;73037;51.110;4.706;2023-10-09T01:18:56;15.40;77.00
83146;DHT22;73037;51.110;4.706;2023-10-09T01:21:23;15.40;76.90
83146;DHT22;73037;51.110;4.706;2023-10-09T01:23:55;15.40;76.90
83146;DHT22;73037;51.110;4.706;2023-10-09T01:26:34;15.40;77.10
83146;DHT22;73037;51.110;4.706;2023-10-09T01:29:21;15.50;77.10
83146;DHT22;73037;51.110;4.706;2023-10-09T01:31:52;15.40;77.00
83146;DHT22;73037;51.110;4.706;2023-10-09T01:34:21;15.50;76.90
83146;DHT22;73037;51.110;4.706;2023-10-09T01:36:50;15.50;76.90
83146;DHT22;73037;51.110;4.706;2023-10-09T01:39:19;15.50;76.70
83146;DHT22;73037;51.110;4.706;2023-10-09T01:41:54;15.50;76.40
83146;DHT22;73037;51.110;4.706;2023-10-09T01:44:32;15.50;76.80
83146;DHT22;73037;51.110;4.706;2023-10-09T01:47:02;15.50;76.80
83146;DHT22;73037;51.110;4.706;2023-10-09T01:49:36;15.50;76.90
83146;DHT22;73037;51.110;4.706;2023-10-09T01:52:09;15.50;76.70
83146;DHT22;73037;51.110;4.706;2023-10-09T01:54:39;15.50;76.80
83146;DHT22;73037;51.110;4.706;2023-10-09T01:57:12;15.50;76.60
83146;DHT22;73037;51.110;4.706;2023-10-09T01:59:39;15.60;76.50
83146;DHT22;73037;51.110;4.706;2023-10-09T02:02:18;15.50;76.50
83146;DHT22;73037;51.110;4.706;2023-10-09T02:04:59;15.50;76.60
83146;DHT22;73037;51.110;4.706;2023-10-09T02:07:35;15.50;76.70
83146;DHT22;73037;51.110;4.706;2023-10-09T02:10:11;15.50;76.50
83146;DHT22;73037;51.110;4.706;2023-10-09T02:12:59;15.50;76.60
83146;DHT22;73037;51.110;4.706;2023-10-09T02:15:29;15.50;76.50
83146;DHT22;73037;51.110;4.706;2023-10-09T02:18:18;15.50;76.40
83146;DHT22;73037;51.110;4.706;2023-10-09T02:21:06;15.50;76.50
83146;DHT22;73037;51.110;4.706;2023-10-09T02:23:33;15.50;76.50
83146;DHT22;73037;51.110;4.706;2023-10-09T02:26:18;15.50;76.50
83146;DHT22;73037;51.110;4.706;2023-10-09T02:28:50;15.50;76.50
83146;DHT22;73037;51.110;4.706;2023-10-09T02:31:29;15.40;76.50
83146;DHT22;73037;51.110;4.706;2023-10-09T02:34:07;15.40;76.50
83146;DHT22;73037;51.110;4.706;2023-10-09T02:36:41;15.40;76.50
83146;DHT22;73037;51.110;4.706;2023-10-09T02:39:15;15.40;76.50
83146;DHT22;73037;51.110;4.706;2023-10-09T02:41:53;15.40;76.40
83146;DHT22;73037;51.110;4.706;2023-10-09T02:44:26;15.40;76.40
83146;DHT22;73037;51.110;4.706;2023-10-09T02:46:52;15.40;76.40
83146;DHT22;73037;51.110;4.706;2023-10-09T02:49:23;15.40;76.50
83146;DHT22;73037;51.110;4.706;2023-10-09T02:51:49;15.30;76.50
83146;DHT22;73037;51.110;4.706;2023-10-09T02:54:18;15.30;76.60
83146;DHT22;73037;51.110;4.706;2023-10-09T02:56:48;15.40;76.50
83146;DHT22;73037;51.110;4.706;2023-10-09T02:59:21;15.40;76.50
83146;DHT22;73037;51.110;4.706;2023-10-09T03:01:50;15.40;76.60
83146;DHT22;73037;51.110;4.706;2023-10-09T03:04:18;15.40;76.20
83146;DHT22;73037;51.110;4.706;2023-10-09T03:06:45;15.40;76.30
83146;DHT22;73037;51.110;4.706;2023-10-09T03:09:19;15.40;76.20
83146;DHT22;73037;51.110;4.706;2023-10-09T03:11:56;15.40;76.20
83146;DHT22;73037;51.110;4.706;2023-10-09T03:14:28;15.40;76.30
83146;DHT22;73037;51.110;4.706;2023-10-09T03:16:58;15.40;76.20
83146;DHT22;73037;51.110;4.706;2023-10-09T03:19:26;15.40;76.30
83146;DHT22;73037;51.110;4.706;2023-10-09T03:21:52;15.40;76.30
83146;DHT22;73037;51.110;4.706;2023-10-09T03:24:18;15.50;76.30
83146;DHT22;73037;51.110;4.706;2023-10-09T03:26:48;15.50;76.10
83146;DHT22;73037;51.110;4.706;2023-10-09T03:29:15;15.40;76.50
83146;DHT22;73037;51.110;4.706;2023-10-09T03:31:41;15.50;76.30
83146;DHT22;73037;51.110;4.706;2023-10-09T03:34:08;15.40;76.40
83146;DHT22;73037;51.110;4.706;2023-10-09T03:36:36;15.40;76.20
83146;DHT22;73037;51.110;4.706;2023-10-09T03:39:05;15.40;76.10
83146;DHT22;73037;51.110;4.706;2023-10-09T03:41:44;15.40;76.20
83146;DHT22;73037;51.110;4.706;2023-10-09T03:44:13;15.40;76.10
83146;DHT22;73037;51.110;4.706;2023-10-09T03:46:39;15.40;76.20
83146;DHT22;73037;51.110;4.706;2023-10-09T03:49:09;15.30;76.20
83146;DHT22;73037;51.110;4.706;2023-10-09T03:51:37;15.40;76.20
83146;DHT22;73037;51.110;4.706;2023-10-09T03:54:04;15.40;76.10
83146;DHT22;73037;51.110;4.706;2023-10-09T03:56:33;15.40;76.20
83146;DHT22;73037;51.110;4.706;2023-10-09T03:59:00;15.40;76.10
83146;DHT22;73037;51.110;4.706;2023-10-09T04:01:27;15.40;76.10
83146;DHT22;73037;51.110;4.706;2023-10-09T04:04:03;15.40;76.10
83146;DHT22;73037;51.110;4.706;2023-10-09T04:06:31;15.40;76.10
83146;DHT22;73037;51.110;4.706;2023-10-09T04:09:05;15.40;76.20
83146;DHT22;73037;51.110;4.706;2023-10-09T04:11:47;15.40;76.10
83146;DHT22;73037;51.110;4.706;2023-10-09T04:14:15;15.40;76.20
83146;DHT22;73037;51.110;4.706;2023-10-09T04:16:51;15.40;76.10
83146;DHT22;73037;51.110;4.706;2023-10-09T04:19:17;15.40;76.20
83146;DHT22;73037;51.110;4.706;2023-10-09T04:21:47;15.40;75.80
83146;DHT22;73037;51.110;4.706;2023-10-09T04:24:13;15.40;76.10
83146;DHT22;73037;51.110;4.706;2023-10-09T04:26:43;15.40;75.90
83146;DHT22;73037;51.110;4.706;2023-10-09T04:29:16;15.40;75.80
83146;DHT22;73037;51.110;4.706;2023-10-09T04:31:55;15.40;75.50
83146;DHT22;73037;51.110;4.706;2023-10-09T04:34:25;15.40;75.50
83146;DHT22;73037;51.110;4.706;2023-10-09T04:36:55;15.50;75.60
83146;DHT22;73037;51.110;4.706;2023-10-09T04:39:39;15.50;75.60
83146;DHT22;73037;51.110;4.706;2023-10-09T04:42:16;15.50;75.50
83146;DHT22;73037;51.110;4.706;2023-10-09T04:44:46;15.50;75.50
83146;DHT22;73037;51.110;4.706;2023-10-09T04:47:38;15.50;75.30
83146;DHT22;73037;51.110;4.706;2023-10-09T04:50:23;15.50;75.50
83146;DHT22;73037;51.110;4.706;2023-10-09T04:52:55;15.50;75.20
83146;DHT22;73037;51.110;4.706;2023-10-09T04:55:21;15.50;75.30
83146;DHT22;73037;51.110;4.706;2023-10-09T04:57:51;15.50;75.50
83146;DHT22;73037;51.110;4.706;2023-10-09T05:00:26;15.50;75.50
83146;DHT22;73037;51.110;4.706;2023-10-09T05:02:59;15.50;75.20
83146;DHT22;73037;51.110;4.706;2023-10-09T05:05:39;15.50;75.40
83146;DHT22;73037;51.110;4.706;2023-10-09T05:08:12;15.50;75.60
83146;DHT22;73037;51.110;4.706;2023-10-09T05:10:48;15.50;75.20
83146;DHT22;73037;51.110;4.706;2023-10-09T05:13:30;15.50;75.50
83146;DHT22;73037;51.110;4.706;2023-10-09T05:18:30;15.50;75.50
83146;DHT22;73037;51.110;4.706;2023-10-09T05:21:03;15.50;75.50
83146;DHT22;73037;51.110;4.706;2023-10-09T05:23:51;15.50;75.50
83146;DHT22;73037;51.110;4.706;2023-10-09T05:26:36;15.50;75.50
83146;DHT22;73037;51.110;4.706;2023-10-09T05:31:50;15.40;75.70
83146;DHT22;73037;51.110;4.706;2023-10-09T05:34:35;15.30;75.80
83146;DHT22;73037;51.110;4.706;2023-10-09T05:37:20;15.30;75.90
83146;DHT22;73037;51.110;4.706;2023-10-09T05:39:59;15.40;75.70
83146;DHT22;73037;51.110;4.706;2023-10-09T05:42:31;15.40;75.70
83146;DHT22;73037;51.110;4.706;2023-10-09T05:45:18;15.40;75.70
83146;DHT22;73037;51.110;4.706;2023-10-09T05:47:50;15.40;75.50
83146;DHT22;73037;51.110;4.706;2023-10-09T05:50:19;15.50;75.40
83146;DHT22;73037;51.110;4.706;2023-10-09T05:52:48;15.40;75.50
83146;DHT22;73037;51.110;4.706;2023-10-09T05:55:17;15.50;75.60
83146;DHT22;73037;51.110;4.706;2023-10-09T05:57:55;15.40;75.50
83146;DHT22;73037;51.110;4.706;2023-10-09T06:00:25;15.50;75.40
83146;DHT22;73037;51.110;4.706;2023-10-09T06:03:09;15.50;75.40
83146;DHT22;73037;51.110;4.706;2023-10-09T06:05:49;15.50;75.50
83146;DHT22;73037;51.110;4.706;2023-10-09T06:08:25;15.50;75.20
83146;DHT22;73037;51.110;4.706;2023-10-09T06:11:14;15.60;75.20
83146;DHT22;73037;51.110;4.706;2023-10-09T06:14:00;15.60;75.00
83146;DHT22;73037;51.110;4.706;2023-10-09T06:16:39;15.60;74.80
83146;DHT22;73037;51.110;4.706;2023-10-09T06:21:54;15.60;75.30
83146;DHT22;73037;51.110;4.706;2023-10-09T06:24:40;15.70;75.20
83146;DHT22;73037;51.110;4.706;2023-10-09T06:27:20;15.70;75.10
83146;DHT22;73037;51.110;4.706;2023-10-09T06:29:52;15.70;75.40
83146;DHT22;73037;51.110;4.706;2023-10-09T06:32:38;15.70;75.30
83146;DHT22;73037;51.110;4.706;2023-10-09T06:35:15;15.80;74.60
83146;DHT22;73037;51.110;4.706;2023-10-09T06:37:49;15.80;74.90
83146;DHT22;73037;51.110;4.706;2023-10-09T06:43:11;15.90;74.90
83146;DHT22;73037;51.110;4.706;2023-10-09T06:45:43;15.90;74.80
83146;DHT22;73037;51.110;4.706;2023-10-09T06:48:10;16.00;74.80
83146;DHT22;73037;51.110;4.706;2023-10-09T06:50:54;16.00;74.40
83146;DHT22;73037;51.110;4.706;2023-10-09T06:53:44;16.10;74.80
83146;DHT22;73037;51.110;4.706;2023-10-09T06:56:28;16.10;74.70
83146;DHT22;73037;51.110;4.706;2023-10-09T06:59:04;16.20;74.40
83146;DHT22;73037;51.110;4.706;2023-10-09T07:01:41;16.20;74.70
83146;DHT22;73037;51.110;4.706;2023-10-09T07:04:13;16.30;74.50
83146;DHT22;73037;51.110;4.706;2023-10-09T07:06:48;16.40;74.10
83146;DHT22;73037;51.110;4.706;2023-10-09T07:09:17;16.50;74.10
83146;DHT22;73037;51.110;4.706;2023-10-09T07:11:50;16.70;73.90
83146;DHT22;73037;51.110;4.706;2023-10-09T07:14:23;16.80;73.50
83146;DHT22;73037;51.110;4.706;2023-10-09T07:19:29;16.70;73.90
83146;DHT22;73037;51.110;4.706;2023-10-09T07:22:21;16.80;74.10
83146;DHT22;73037;51.110;4.706;2023-10-09T07:24:52;16.80;73.80
83146;DHT22;73037;51.110;4.706;2023-10-09T07:27:31;16.90;73.70
83146;DHT22;73037;51.110;4.706;2023-10-09T07:30:11;16.90;73.50
83146;DHT22;73037;51.110;4.706;2023-10-09T07:33:03;17.00;73.00
83146;DHT22;73037;51.110;4.706;2023-10-09T07:35:43;17.10;73.20
83146;DHT22;73037;51.110;4.706;2023-10-09T07:40:40;17.60;72.00
83146;DHT22;73037;51.110;4.706;2023-10-09T07:43:26;17.90;71.50
83146;DHT22;73037;51.110;4.706;2023-10-09T07:45:57;18.00;70.70
83146;DHT22;73037;51.110;4.706;2023-10-09T07:48:22;18.00;71.10
83146;DHT22;73037;51.110;4.706;2023-10-09T07:50:51;18.00;71.20
83146;DHT22;73037;51.110;4.706;2023-10-09T07:53:23;17.90;71.30
83146;DHT22;73037;51.110;4.706;2023-10-09T07:55:54;17.80;71.20
83146;DHT22;73037;51.110;4.706;2023-10-09T07:58:22;17.80;71.50
83146;DHT22;73037;51.110;4.706;2023-10-09T08:00:57;17.80;70.60
83146;DHT22;73037;51.110;4.706;2023-10-09T08:03:34;17.80;69.90
83146;DHT22;73037;51.110;4.706;2023-10-09T08:06:01;17.80;71.20
83146;DHT22;73037;51.110;4.706;2023-10-09T08:08:53;18.00;70.90
83146;DHT22;73037;51.110;4.706;2023-10-09T08:11:31;18.20;70.50
83146;DHT22;73037;51.110;4.706;2023-10-09T08:14:06;18.40;70.20
83146;DHT22;73037;51.110;4.706;2023-10-09T08:16:50;18.60;69.60
83146;DHT22;73037;51.110;4.706;2023-10-09T08:19:17;18.60;69.50
83146;DHT22;73037;51.110;4.706;2023-10-09T08:22:01;18.50;69.20
83146;DHT22;73037;51.110;4.706;2023-10-09T08:25:02;18.40;69.60
83146;DHT22;73037;51.110;4.706;2023-10-09T08:27:29;18.40;69.70
83146;DHT22;73037;51.110;4.706;2023-10-09T08:29:59;18.50;69.70
83146;DHT22;73037;51.110;4.706;2023-10-09T08:32:47;18.70;69.90
83146;DHT22;73037;51.110;4.706;2023-10-09T08:35:34;19.10;69.20
83146;DHT22;73037;51.110;4.706;2023-10-09T08:38:01;19.30;68.50
83146;DHT22;73037;51.110;4.706;2023-10-09T08:40:43;19.40;68.50
83146;DHT22;73037;51.110;4.706;2023-10-09T08:43:18;19.50;68.50
83146;DHT22;73037;51.110;4.706;2023-10-09T08:45:48;19.50;68.30
83146;DHT22;73037;51.110;4.706;2023-10-09T08:48:14;19.70;67.40
83146;DHT22;73037;51.110;4.706;2023-10-09T08:50:49;19.70;67.30
83146;DHT22;73037;51.110;4.706;2023-10-09T08:53:16;19.70;67.90
83146;DHT22;73037;51.110;4.706;2023-10-09T08:55:43;19.70;67.10
83146;DHT22;73037;51.110;4.706;2023-10-09T08:58:09;19.90;66.30
83146;DHT22;73037;51.110;4.706;2023-10-09T09:00:44;19.90;67.00
83146;DHT22;73037;51.110;4.706;2023-10-09T09:03:38;20.00;65.60
83146;DHT22;73037;51.110;4.706;2023-10-09T09:06:04;20.30;65.00
83146;DHT22;73037;51.110;4.706;2023-10-09T09:08:32;20.40;66.00
83146;DHT22;73037;51.110;4.706;2023-10-09T09:11:10;20.60;66.30
83146;DHT22;73037;51.110;4.706;2023-10-09T09:13:41;20.80;65.90
83146;DHT22;73037;51.110;4.706;2023-10-09T09:18:55;20.90;65.00
83146;DHT22;73037;51.110;4.706;2023-10-09T09:21:35;21.10;64.50
83146;DHT22;73037;51.110;4.706;2023-10-09T09:24:08;21.20;64.40
83146;DHT22;73037;51.110;4.706;2023-10-09T09:26:47;21.30;65.20
83146;DHT22;73037;51.110;4.706;2023-10-09T09:29:14;21.40;63.80
83146;DHT22;73037;51.110;4.706;2023-10-09T09:31:56;21.40;64.60
83146;DHT22;73037;51.110;4.706;2023-10-09T09:34:23;21.50;63.70
83146;DHT22;73037;51.110;4.706;2023-10-09T09:36:56;21.50;63.30
83146;DHT22;73037;51.110;4.706;2023-10-09T09:39:25;21.50;63.00
83146;DHT22;73037;51.110;4.706;2023-10-09T09:41:58;21.70;63.90
83146;DHT22;73037;51.110;4.706;2023-10-09T09:44:35;21.70;63.50
83146;DHT22;73037;51.110;4.706;2023-10-09T09:47:15;21.70;63.50
83146;DHT22;73037;51.110;4.706;2023-10-09T09:49:50;21.60;62.90
83146;DHT22;73037;51.110;4.706;2023-10-09T09:52:18;21.50;64.00
83146;DHT22;73037;51.110;4.706;2023-10-09T09:54:44;21.50;63.40
83146;DHT22;73037;51.110;4.706;2023-10-09T09:57:16;21.50;63.00
83146;DHT22;73037;51.110;4.706;2023-10-09T09:59:52;21.50;63.90
83146;DHT22;73037;51.110;4.706;2023-10-09T10:02:36;21.70;63.10
83146;DHT22;73037;51.110;4.706;2023-10-09T10:05:06;21.50;63.10
83146;DHT22;73037;51.110;4.706;2023-10-09T10:07:34;21.50;63.40
83146;DHT22;73037;51.110;4.706;2023-10-09T10:10:37;21.70;63.60
83146;DHT22;73037;51.110;4.706;2023-10-09T10:13:05;21.90;63.70
83146;DHT22;73037;51.110;4.706;2023-10-09T10:18:23;22.00;63.50
83146;DHT22;73037;51.110;4.706;2023-10-09T10:24:02;21.90;62.70
83146;DHT22;73037;51.110;4.706;2023-10-09T10:26:32;22.00;63.00
83146;DHT22;73037;51.110;4.706;2023-10-09T10:29:18;21.90;63.20
83146;DHT22;73037;51.110;4.706;2023-10-09T10:31:57;21.90;62.90
83146;DHT22;73037;51.110;4.706;2023-10-09T10:34:24;21.90;62.80
83146;DHT22;73037;51.110;4.706;2023-10-09T10:36:51;21.90;62.90
83146;DHT22;73037;51.110;4.706;2023-10-09T10:39:18;22.00;62.50
83146;DHT22;73037;51.110;4.706;2023-10-09T10:41:57;22.00;62.90
83146;DHT22;73037;51.110;4.706;2023-10-09T10:44:32;22.00;62.10
83146;DHT22;73037;51.110;4.706;2023-10-09T10:47:11;21.90;62.90
83146;DHT22;73037;51.110;4.706;2023-10-09T10:50:02;21.80;63.20
83146;DHT22;73037;51.110;4.706;2023-10-09T10:52:47;21.70;62.90
83146;DHT22;73037;51.110;4.706;2023-10-09T10:55:22;21.70;62.60
83146;DHT22;73037;51.110;4.706;2023-10-09T10:58:00;21.70;63.00
83146;DHT22;73037;51.110;4.706;2023-10-09T11:00:30;21.90;62.50
83146;DHT22;73037;51.110;4.706;2023-10-09T11:03:18;21.90;62.60
83146;DHT22;73037;51.110;4.706;2023-10-09T11:05:55;21.90;62.70
83146;DHT22;73037;51.110;4.706;2023-10-09T11:08:25;21.80;62.70
83146;DHT22;73037;51.110;4.706;2023-10-09T11:11:11;21.90;62.80
83146;DHT22;73037;51.110;4.706;2023-10-09T11:13:42;22.00;63.00
83146;DHT22;73037;51.110;4.706;2023-10-09T11:16:28;22.00;63.10
83146;DHT22;73037;51.110;4.706;2023-10-09T11:18:58;22.10;63.70
83146;DHT22;73037;51.110;4.706;2023-10-09T11:21:29;22.20;62.90
83146;DHT22;73037;51.110;4.706;2023-10-09T11:23:58;22.30;63.30
83146;DHT22;73037;51.110;4.706;2023-10-09T11:26:25;22.30;61.90
83146;DHT22;73037;51.110;4.706;2023-10-09T11:29:11;22.30;62.90
83146;DHT22;73037;51.110;4.706;2023-10-09T11:32:02;22.30;62.50
83146;DHT22;73037;51.110;4.706;2023-10-09T11:34:31;22.40;63.30
83146;DHT22;73037;51.110;4.706;2023-10-09T11:37:07;22.50;62.20
83146;DHT22;73037;51.110;4.706;2023-10-09T11:39:38;22.50;62.70
83146;DHT22;73037;51.110;4.706;2023-10-09T11:42:18;22.50;62.30
83146;DHT22;73037;51.110;4.706;2023-10-09T11:45:08;22.50;62.00
83146;DHT22;73037;51.110;4.706;2023-10-09T11:47:52;22.50;61.70
83146;DHT22;73037;51.110;4.706;2023-10-09T11:50:44;22.60;62.50
83146;DHT22;73037;51.110;4.706;2023-10-09T11:53:17;22.70;62.20
83146;DHT22;73037;51.110;4.706;2023-10-09T11:55:46;22.60;61.60
83146;DHT22;73037;51.110;4.706;2023-10-09T11:58:18;22.60;62.60
83146;DHT22;73037;51.110;4.706;2023-10-09T12:00:59;22.60;63.90
83146;DHT22;73037;51.110;4.706;2023-10-09T12:03:28;22.60;63.00
83146;DHT22;73037;51.110;4.706;2023-10-09T12:05:59;22.50;63.20
83146;DHT22;73037;51.110;4.706;2023-10-09T12:08:37;22.50;62.30
83146;DHT22;73037;51.110;4.706;2023-10-09T12:11:06;22.20;62.10
83146;DHT22;73037;51.110;4.706;2023-10-09T12:13:37;22.20;62.80
83146;DHT22;73037;51.110;4.706;2023-10-09T12:16:08;22.20;62.80
83146;DHT22;73037;51.110;4.706;2023-10-09T12:18:37;22.10;62.20
83146;DHT22;73037;51.110;4.706;2023-10-09T12:21:05;22.10;62.50
83146;DHT22;73037;51.110;4.706;2023-10-09T12:23:32;22.30;62.30
83146;DHT22;73037;51.110;4.706;2023-10-09T12:26:04;22.30;62.10
83146;DHT22;73037;51.110;4.706;2023-10-09T12:28:30;22.30;62.40
83146;DHT22;73037;51.110;4.706;2023-10-09T12:30:59;22.30;62.50
83146;DHT22;73037;51.110;4.706;2023-10-09T12:33:27;22.50;63.40
83146;DHT22;73037;51.110;4.706;2023-10-09T12:35:54;22.50;63.00
83146;DHT22;73037;51.110;4.706;2023-10-09T12:38:28;22.50;62.80
83146;DHT22;73037;51.110;4.706;2023-10-09T12:43:34;22.30;62.70
83146;DHT22;73037;51.110;4.706;2023-10-09T12:46:07;22.30;62.90
83146;DHT22;73037;51.110;4.706;2023-10-09T12:48:33;22.30;63.20
83146;DHT22;73037;51.110;4.706;2023-10-09T12:50:59;22.30;63.60
83146;DHT22;73037;51.110;4.706;2023-10-09T12:53:34;22.30;63.20
83146;DHT22;73037;51.110;4.706;2023-10-09T12:55:59;22.30;63.90
83146;DHT22;73037;51.110;4.706;2023-10-09T12:58:25;22.40;63.00
83146;DHT22;73037;51.110;4.706;2023-10-09T13:00:52;22.30;62.70
83146;DHT22;73037;51.110;4.706;2023-10-09T13:03:18;22.30;64.00
83146;DHT22;73037;51.110;4.706;2023-10-09T13:05:49;22.30;64.50
83146;DHT22;73037;51.110;4.706;2023-10-09T13:08:21;22.30;63.90
83146;DHT22;73037;51.110;4.706;2023-10-09T13:10:51;22.20;64.20
83146;DHT22;73037;51.110;4.706;2023-10-09T13:13:27;22.20;63.70
83146;DHT22;73037;51.110;4.706;2023-10-09T13:16:06;22.10;63.00
83146;DHT22;73037;51.110;4.706;2023-10-09T13:18:32;22.20;64.20
83146;DHT22;73037;51.110;4.706;2023-10-09T13:20:58;22.30;64.30
83146;DHT22;73037;51.110;4.706;2023-10-09T13:23:29;22.50;63.70
83146;DHT22;73037;51.110;4.706;2023-10-09T13:26:06;22.50;63.40
83146;DHT22;73037;51.110;4.706;2023-10-09T13:28:48;22.60;63.60
83146;DHT22;73037;51.110;4.706;2023-10-09T13:31:17;22.60;63.60
83146;DHT22;73037;51.110;4.706;2023-10-09T13:33:44;22.50;63.00
83146;DHT22;73037;51.110;4.706;2023-10-09T13:36:10;22.50;63.70
83146;DHT22;73037;51.110;4.706;2023-10-09T13:38:53;22.50;63.50
83146;DHT22;73037;51.110;4.706;2023-10-09T13:41:19;22.50;62.80
83146;DHT22;73037;51.110;4.706;2023-10-09T13:43:45;22.30;62.90
83146;DHT22;73037;51.110;4.706;2023-10-09T13:46:11;22.20;63.70
83146;DHT22;73037;51.110;4.706;2023-10-09T13:48:39;22.10;63.50
83146;DHT22;73037;51.110;4.706;2023-10-09T13:51:07;22.10;63.30
83146;DHT22;73037;51.110;4.706;2023-10-09T13:53:34;22.10;63.30
83146;DHT22;73037;51.110;4.706;2023-10-09T13:56:18;21.90;63.40
83146;DHT22;73037;51.110;4.706;2023-10-09T13:58:47;21.90;63.70
83146;DHT22;73037;51.110;4.706;2023-10-09T14:01:14;21.80;63.00
83146;DHT22;73037;51.110;4.706;2023-10-09T14:04:00;21.80;63.40
83146;DHT22;73037;51.110;4.706;2023-10-09T14:06:27;21.70;64.30
83146;DHT22;73037;51.110;4.706;2023-10-09T14:09:00;21.70;62.50
83146;DHT22;73037;51.110;4.706;2023-10-09T14:11:31;21.60;63.90
83146;DHT22;73037;51.110;4.706;2023-10-09T14:13:58;21.50;63.90
83146;DHT22;73037;51.110;4.706;2023-10-09T14:16:28;21.60;64.10
83146;DHT22;73037;51.110;4.706;2023-10-09T14:18:56;21.60;64.50
83146;DHT22;73037;51.110;4.706;2023-10-09T14:21:29;21.60;64.20
83146;DHT22;73037;51.110;4.706;2023-10-09T14:23:58;21.50;64.80
83146;DHT22;73037;51.110;4.706;2023-10-09T14:26:28;21.60;65.10
83146;DHT22;73037;51.110;4.706;2023-10-09T14:28:55;21.60;65.20
83146;DHT22;73037;51.110;4.706;2023-10-09T14:31:25;21.50;66.10
83146;DHT22;73037;51.110;4.706;2023-10-09T14:33:57;21.50;66.10
83146;DHT22;73037;51.110;4.706;2023-10-09T14:36:23;21.70;66.40
83146;DHT22;73037;51.110;4.706;2023-10-09T14:38:51;21.70;66.80
83146;DHT22;73037;51.110;4.706;2023-10-09T14:41:21;21.70;65.80
83146;DHT22;73037;51.110;4.706;2023-10-09T14:43:50;21.60;66.20
83146;DHT22;73037;51.110;4.706;2023-10-09T14:46:16;21.50;65.80
83146;DHT22;73037;51.110;4.706;2023-10-09T14:48:42;21.50;65.30
83146;DHT22;73037;51.110;4.706;2023-10-09T14:51:11;21.40;64.70
83146;DHT22;73037;51.110;4.706;2023-10-09T14:53:39;21.30;66.10
83146;DHT22;73037;51.110;4.706;2023-10-09T14:56:06;21.20;66.10
83146;DHT22;73037;51.110;4.706;2023-10-09T14:58:35;21.10;67.00
83146;DHT22;73037;51.110;4.706;2023-10-09T15:01:11;20.90;67.30
83146;DHT22;73037;51.110;4.706;2023-10-09T15:03:38;20.80;67.60
83146;DHT22;73037;51.110;4.706;2023-10-09T15:06:04;20.60;68.10
83146;DHT22;73037;51.110;4.706;2023-10-09T15:08:34;20.50;68.50
83146;DHT22;73037;51.110;4.706;2023-10-09T15:11:00;20.30;68.70
83146;DHT22;73037;51.110;4.706;2023-10-09T15:13:26;20.30;69.40
83146;DHT22;73037;51.110;4.706;2023-10-09T15:15:54;20.20;68.60
83146;DHT22;73037;51.110;4.706;2023-10-09T15:18:21;20.30;69.40
83146;DHT22;73037;51.110;4.706;2023-10-09T15:20:48;20.50;69.80
83146;DHT22;73037;51.110;4.706;2023-10-09T15:23:14;20.60;69.20
83146;DHT22;73037;51.110;4.706;2023-10-09T15:25:40;20.70;68.70
83146;DHT22;73037;51.110;4.706;2023-10-09T15:28:11;20.60;69.00
83146;DHT22;73037;51.110;4.706;2023-10-09T15:30:38;20.50;68.90
83146;DHT22;73037;51.110;4.706;2023-10-09T15:33:08;20.30;69.10
83146;DHT22;73037;51.110;4.706;2023-10-09T15:35:36;20.30;69.00
83146;DHT22;73037;51.110;4.706;2023-10-09T15:38:03;20.10;69.60
83146;DHT22;73037;51.110;4.706;2023-10-09T15:40:32;20.00;70.10
83146;DHT22;73037;51.110;4.706;2023-10-09T15:43:03;20.00;70.50
83146;DHT22;73037;51.110;4.706;2023-10-09T15:45:30;20.00;69.70
83146;DHT22;73037;51.110;4.706;2023-10-09T15:47:57;19.90;70.20
83146;DHT22;73037;51.110;4.706;2023-10-09T15:50:25;19.90;70.20
83146;DHT22;73037;51.110;4.706;2023-10-09T15:52:54;19.70;70.60
83146;DHT22;73037;51.110;4.706;2023-10-09T15:55:24;19.70;70.80
83146;DHT22;73037;51.110;4.706;2023-10-09T15:57:50;19.70;71.20
83146;DHT22;73037;51.110;4.706;2023-10-09T16:00:21;19.60;71.60
83146;DHT22;73037;51.110;4.706;2023-10-09T16:02:48;19.50;71.80
83146;DHT22;73037;51.110;4.706;2023-10-09T16:05:14;19.50;71.90
83146;DHT22;73037;51.110;4.706;2023-10-09T16:07:42;19.40;72.10
83146;DHT22;73037;51.110;4.706;2023-10-09T16:10:08;19.40;72.20
83146;DHT22;73037;51.110;4.706;2023-10-09T16:12:38;19.30;72.60
83146;DHT22;73037;51.110;4.706;2023-10-09T16:15:05;19.20;72.60
83146;DHT22;73037;51.110;4.706;2023-10-09T16:17:34;19.10;72.60
83146;DHT22;73037;51.110;4.706;2023-10-09T16:20:01;19.10;73.00
83146;DHT22;73037;51.110;4.706;2023-10-09T16:22:27;19.00;73.20
83146;DHT22;73037;51.110;4.706;2023-10-09T16:24:55;18.90;73.20
83146;DHT22;73037;51.110;4.706;2023-10-09T16:27:25;18.90;73.20
83146;DHT22;73037;51.110;4.706;2023-10-09T16:29:51;18.80;73.20
83146;DHT22;73037;51.110;4.706;2023-10-09T16:32:17;18.80;73.40